createdAt,value
2023-01-25T00:02:25.415Z,2.50
2023-01-25T00:04:54.113Z,2.50
2023-01-25T00:07:22.783Z,2.50
2023-01-25T00:09:51.434Z,2.50
2023-01-25T00:12:20.232Z,2.50
2023-01-25T00:14:48.812Z,2.60
2023-01-25T00:17:17.481Z,2.60
2023-01-25T00:19:47.635Z,2.50
2023-01-25T00:22:16.285Z,2.50
2023-01-25T00:24:44.878Z,2.50
2023-01-25T00:27:13.504Z,2.50
2023-01-25T00:29:42.239Z,2.40
2023-01-25T00:32:42.319Z,2.30
2023-01-25T00:35:14.737Z,2.30
2023-01-25T00:37:49.972Z,2.30
2023-01-25T00:40:20.187Z,2.30
2023-01-25T00:42:48.779Z,2.30
2023-01-25T00:45:17.702Z,2.20
2023-01-25T00:47:46.343Z,2.30
2023-01-25T00:50:30.780Z,2.20
2023-01-25T00:52:59.580Z,2.20
2023-01-25T00:55:29.225Z,2.20
2023-01-25T00:57:57.859Z,2.20
2023-01-25T01:00:26.368Z,2.30
2023-01-25T01:02:55.162Z,2.30
2023-01-25T01:05:25.389Z,2.20
2023-01-25T01:07:54.363Z,2.20
2023-01-25T01:10:22.929Z,2.10
2023-01-25T01:12:53.316Z,2.10
2023-01-25T01:15:21.983Z,2.10
2023-01-25T01:17:50.693Z,2.00
2023-01-25T01:20:19.572Z,2.10
2023-01-25T01:22:49.673Z,2.10
2023-01-25T01:25:18.291Z,2.00
2023-01-25T01:27:46.804Z,2.00
2023-01-25T01:30:15.732Z,2.00
2023-01-25T01:32:44.612Z,2.00
2023-01-25T01:35:13.808Z,2.00
2023-01-25T01:37:44.415Z,2.00
2023-01-25T01:40:18.185Z,2.00
2023-01-25T01:43:06.410Z,2.00
2023-01-25T01:45:56.200Z,1.90
2023-01-25T01:48:38.609Z,1.90
2023-01-25T01:51:19.581Z,2.00
2023-01-25T01:53:54.778Z,2.00
2023-01-25T01:56:31.901Z,2.00
2023-01-25T01:59:06.130Z,2.00
2023-01-25T02:01:35.843Z,2.00
2023-01-25T02:04:06.413Z,1.90
2023-01-25T02:06:42.624Z,2.00
2023-01-25T02:09:11.635Z,2.00
2023-01-25T02:11:42.138Z,2.00
2023-01-25T02:14:10.934Z,2.00
2023-01-25T02:16:40.363Z,2.00
2023-01-25T02:19:10.740Z,2.00
2023-01-25T02:21:46.069Z,2.00
2023-01-25T02:24:21.579Z,2.00
2023-01-25T02:26:51.649Z,1.90
2023-01-25T02:29:24.187Z,1.90
2023-01-25T02:32:01.082Z,1.90
2023-01-25T02:34:30.044Z,1.80
2023-01-25T02:36:59.180Z,1.80
2023-01-25T02:39:28.994Z,1.80
2023-01-25T02:41:59.129Z,1.80
2023-01-25T02:44:34.433Z,1.80
2023-01-25T02:47:05.654Z,1.80
2023-01-25T02:49:36.969Z,1.80
2023-01-25T02:52:06.609Z,1.90
2023-01-25T02:54:35.596Z,1.90
2023-01-25T02:57:09.889Z,1.90
2023-01-25T02:59:45.302Z,1.90
2023-01-25T03:02:15.915Z,1.90
2023-01-25T03:04:47.044Z,1.90
2023-01-25T03:07:17.191Z,1.90
2023-01-25T03:09:47.101Z,1.90
2023-01-25T03:12:17.868Z,1.90
2023-01-25T03:14:48.318Z,1.90
2023-01-25T03:17:17.987Z,1.90
2023-01-25T03:19:48.413Z,1.90
2023-01-25T03:22:19.236Z,1.90
2023-01-25T03:24:51.715Z,1.90
2023-01-25T03:27:22.771Z,1.90
2023-01-25T03:29:56.285Z,1.90
2023-01-25T03:32:28.965Z,1.90
2023-01-25T03:35:04.029Z,1.90
2023-01-25T03:37:39.398Z,1.90
2023-01-25T03:40:10.228Z,1.90
2023-01-25T03:42:44.236Z,1.90
2023-01-25T03:45:14.698Z,1.80
2023-01-25T03:47:44.488Z,1.80
2023-01-25T03:50:13.687Z,1.80
2023-01-25T03:53:02.430Z,1.80
2023-01-25T03:55:34.803Z,1.80
2023-01-25T03:58:05.502Z,1.80
2023-01-25T04:00:38.690Z,1.80
2023-01-25T04:03:07.513Z,1.80
2023-01-25T04:05:37.333Z,1.80
2023-01-25T04:08:06.067Z,1.80
2023-01-25T04:10:40.153Z,1.80
2023-01-25T04:13:11.295Z,1.80
2023-01-25T04:15:39.917Z,1.90
2023-01-25T04:18:17.249Z,1.90
2023-01-25T04:20:46.210Z,1.90
2023-01-25T04:23:18.159Z,1.80
2023-01-25T04:25:54.440Z,1.80
2023-01-25T04:28:25.125Z,1.80
2023-01-25T04:30:56.425Z,1.90
2023-01-25T04:33:28.445Z,1.90
2023-01-25T04:35:57.134Z,1.90
2023-01-25T04:38:26.785Z,1.90
2023-01-25T04:40:56.021Z,1.90
2023-01-25T04:43:26.386Z,1.90
2023-01-25T04:46:02.385Z,1.90
2023-01-25T04:48:34.035Z,2.00
2023-01-25T04:51:06.147Z,1.90
2023-01-25T04:53:35.974Z,1.90
2023-01-25T04:56:10.606Z,1.90
2023-01-25T04:58:53.042Z,1.90
2023-01-25T05:01:22.041Z,1.90
2023-01-25T05:03:52.461Z,1.80
2023-01-25T05:06:32.570Z,1.80
2023-01-25T05:09:01.334Z,1.80
2023-01-25T05:11:29.893Z,1.80
2023-01-25T05:14:07.848Z,1.80
2023-01-25T05:16:36.542Z,1.90
2023-01-25T05:19:05.857Z,1.80
2023-01-25T05:22:01.340Z,1.90
2023-01-25T05:24:41.744Z,1.90
2023-01-25T05:27:12.110Z,1.80
2023-01-25T05:30:02.013Z,1.80
2023-01-25T05:32:51.490Z,1.90
2023-01-25T05:35:20.215Z,1.90
2023-01-25T05:37:51.216Z,1.90
2023-01-25T05:40:24.767Z,1.90
2023-01-25T05:42:56.860Z,1.90
2023-01-25T05:45:30.172Z,1.90
2023-01-25T05:48:00.636Z,1.90
2023-01-25T05:50:29.687Z,2.00
2023-01-25T05:53:11.293Z,1.90
2023-01-25T05:55:41.353Z,2.00
2023-01-25T05:58:14.407Z,2.00
2023-01-25T06:00:45.134Z,2.00
2023-01-25T06:03:22.120Z,1.90
2023-01-25T06:05:56.688Z,1.90
2023-01-25T06:08:26.099Z,1.90
2023-01-25T06:10:56.487Z,1.90
2023-01-25T06:13:27.384Z,1.80
2023-01-25T06:15:58.859Z,1.80
2023-01-25T06:18:56.730Z,1.70
2023-01-25T06:21:42.085Z,1.70
2023-01-25T06:24:11.213Z,1.80
2023-01-25T06:26:40.083Z,1.80
2023-01-25T06:29:08.897Z,1.80
2023-01-25T06:31:39.003Z,1.90
2023-01-25T06:34:08.772Z,1.90
2023-01-25T06:36:37.599Z,1.90
2023-01-25T06:39:06.892Z,1.90
2023-01-25T06:41:35.919Z,1.90
2023-01-25T06:44:05.075Z,1.90
2023-01-25T06:46:34.283Z,2.00
2023-01-25T06:49:04.467Z,2.00
2023-01-25T06:51:33.261Z,2.00
2023-01-25T06:54:05.184Z,2.10
2023-01-25T06:56:34.196Z,2.20
2023-01-25T06:59:02.754Z,2.10
2023-01-25T07:01:32.680Z,2.10
2023-01-25T07:04:06.889Z,2.10
2023-01-25T07:06:36.811Z,2.10
2023-01-25T07:09:06.752Z,2.10
2023-01-25T07:11:35.601Z,2.10
2023-01-25T07:14:04.850Z,2.10
2023-01-25T07:16:37.103Z,2.10
2023-01-25T07:19:09.156Z,2.10
2023-01-25T07:21:37.925Z,2.00
2023-01-25T07:24:07.167Z,2.00
2023-01-25T07:26:35.881Z,2.00
2023-01-25T07:29:04.399Z,2.00
2023-01-25T07:31:33.273Z,1.90
2023-01-25T07:34:02.044Z,1.90
2023-01-25T07:36:32.433Z,2.00
2023-01-25T07:39:01.133Z,2.00
2023-01-25T07:41:29.823Z,2.00
2023-01-25T07:43:58.286Z,2.00
2023-01-25T07:46:39.800Z,2.00
2023-01-25T07:49:08.484Z,1.90
2023-01-25T07:51:38.650Z,1.90
2023-01-25T07:54:07.326Z,1.80
2023-01-25T07:56:37.966Z,1.80
2023-01-25T07:59:08.453Z,1.80
2023-01-25T08:01:37.390Z,1.70
2023-01-25T08:04:10.896Z,1.80
2023-01-25T08:06:41.014Z,1.80
2023-01-25T08:09:13.944Z,1.80
2023-01-25T08:11:43.987Z,1.80
2023-01-25T08:14:12.736Z,1.80
2023-01-25T08:16:41.345Z,1.80
2023-01-25T08:19:11.694Z,1.90
2023-01-25T08:21:42.016Z,1.90
2023-01-25T08:24:11.146Z,1.90
2023-01-25T08:26:39.988Z,2.00
2023-01-25T08:29:08.660Z,2.00
2023-01-25T08:31:37.513Z,2.10
2023-01-25T08:34:07.165Z,2.10
2023-01-25T08:36:35.932Z,2.10
2023-01-25T08:39:08.027Z,2.20
2023-01-25T08:41:37.303Z,2.20
2023-01-25T08:44:06.421Z,2.20
2023-01-25T08:46:35.835Z,2.30
2023-01-25T08:49:05.637Z,2.30
2023-01-25T08:51:34.592Z,2.30
2023-01-25T08:54:14.000Z,2.30
2023-01-25T08:56:43.605Z,2.30
2023-01-25T08:59:13.890Z,2.30
2023-01-25T09:01:42.580Z,2.30
2023-01-25T09:04:11.192Z,2.30
2023-01-25T09:06:39.879Z,2.30
2023-01-25T09:09:10.029Z,2.40
2023-01-25T09:11:40.502Z,2.30
2023-01-25T09:14:09.131Z,2.40
2023-01-25T09:16:37.716Z,2.30
2023-01-25T09:19:07.084Z,2.30
2023-01-25T09:21:37.286Z,2.40
2023-01-25T09:24:07.892Z,2.30
2023-01-25T09:26:40.878Z,2.40
2023-01-25T09:29:11.598Z,2.40
2023-01-25T09:31:44.105Z,2.40
2023-01-25T09:34:16.255Z,2.40
2023-01-25T09:36:45.271Z,2.40
2023-01-25T09:39:13.906Z,2.40
2023-01-25T09:42:14.947Z,2.40
2023-01-25T09:45:15.769Z,2.40
2023-01-25T09:47:49.890Z,2.50
2023-01-25T09:50:36.852Z,2.50
2023-01-25T09:53:26.774Z,2.60
2023-01-25T09:55:59.253Z,2.50
2023-01-25T09:58:37.778Z,2.60
2023-01-25T10:01:37.731Z,2.60
2023-01-25T10:04:13.799Z,2.60
2023-01-25T10:06:55.094Z,2.60
2023-01-25T10:09:38.420Z,2.60
2023-01-25T10:12:15.497Z,2.60
2023-01-25T10:14:45.824Z,2.60
2023-01-25T10:17:21.581Z,2.60
2023-01-25T10:20:04.443Z,2.60
2023-01-25T10:22:42.482Z,2.70
2023-01-25T10:25:30.107Z,2.60
2023-01-25T10:28:20.820Z,2.50
2023-01-25T10:30:58.692Z,2.50
2023-01-25T10:33:29.943Z,2.40
2023-01-25T10:36:04.163Z,2.40
2023-01-25T10:38:38.079Z,2.40
2023-01-25T10:41:14.202Z,2.40
2023-01-25T10:43:42.847Z,2.40
2023-01-25T10:46:21.649Z,2.30
2023-01-25T10:48:50.362Z,2.20
2023-01-25T10:51:31.746Z,2.10
2023-01-25T10:54:03.005Z,2.10
2023-01-25T10:56:34.353Z,2.10
2023-01-25T10:59:17.132Z,2.00
2023-01-25T11:01:47.538Z,2.00
2023-01-25T11:04:43.060Z,2.00
2023-01-25T11:07:29.136Z,2.10
2023-01-25T11:09:57.867Z,2.20
2023-01-25T11:12:26.581Z,2.30
2023-01-25T11:14:58.298Z,2.30
2023-01-25T11:17:31.913Z,2.40
2023-01-25T11:20:19.691Z,2.40
2023-01-25T11:22:53.471Z,2.40
2023-01-25T11:25:33.479Z,2.40
2023-01-25T11:28:19.739Z,2.40
2023-01-25T11:30:49.019Z,2.40
2023-01-25T11:33:20.599Z,2.40
2023-01-25T11:36:11.955Z,2.40
2023-01-25T11:38:47.659Z,2.40
2023-01-25T11:41:26.653Z,2.40
2023-01-25T11:44:13.943Z,2.50
2023-01-25T11:46:57.606Z,2.50
2023-01-25T11:49:47.283Z,2.60
2023-01-25T11:52:25.714Z,2.70
2023-01-25T11:55:03.813Z,2.80
2023-01-25T11:58:06.378Z,2.80
2023-01-25T12:00:49.237Z,2.80
2023-01-25T12:03:51.638Z,2.90
2023-01-25T12:06:29.840Z,2.90
2023-01-25T12:09:15.986Z,2.90
2023-01-25T12:11:56.427Z,2.90
2023-01-25T12:14:38.827Z,3.00
2023-01-25T12:17:23.787Z,3.00
2023-01-25T12:20:18.165Z,3.10
2023-01-25T12:23:02.148Z,3.00
2023-01-25T12:25:40.287Z,2.90
2023-01-25T12:28:16.900Z,2.90
2023-01-25T12:30:52.700Z,2.90
2023-01-25T12:33:26.339Z,2.80
2023-01-25T12:36:01.215Z,2.80
2023-01-25T12:38:38.234Z,2.80
2023-01-25T12:41:27.046Z,2.90
2023-01-25T12:43:59.337Z,2.90
2023-01-25T12:46:32.169Z,3.00
2023-01-25T12:49:07.191Z,3.00
2023-01-25T12:51:40.102Z,3.00
2023-01-25T12:54:18.394Z,3.00
2023-01-25T12:56:54.391Z,3.00
2023-01-25T12:59:32.709Z,3.00
2023-01-25T13:02:12.098Z,3.10
2023-01-25T13:04:56.656Z,3.10
2023-01-25T13:07:36.557Z,3.00
2023-01-25T13:10:15.383Z,3.00
2023-01-25T13:12:55.245Z,2.90
2023-01-25T13:15:41.039Z,2.80
2023-01-25T13:18:41.020Z,2.60
2023-01-25T13:21:48.564Z,2.50
2023-01-25T13:24:28.015Z,2.40
2023-01-25T13:27:06.775Z,2.30
2023-01-25T13:29:47.351Z,2.30
2023-01-25T13:32:36.776Z,2.30
2023-01-25T13:35:06.446Z,2.20
2023-01-25T13:37:37.564Z,2.10
2023-01-25T13:40:27.577Z,2.20
2023-01-25T13:43:03.906Z,2.10
2023-01-25T13:45:35.862Z,2.10
2023-01-25T13:48:16.817Z,2.20
2023-01-25T13:50:53.969Z,2.10
2023-01-25T13:53:29.653Z,2.10
2023-01-25T13:56:04.477Z,2.10
2023-01-25T13:58:37.474Z,2.00
2023-01-25T14:01:09.039Z,1.90
2023-01-25T14:03:42.000Z,2.00
2023-01-25T14:06:18.814Z,2.00
2023-01-25T14:08:50.726Z,2.00
2023-01-25T14:11:20.946Z,2.00
2023-01-25T14:14:03.573Z,2.00
2023-01-25T14:16:33.138Z,2.10
2023-01-25T14:19:23.541Z,2.00
2023-01-25T14:21:52.331Z,1.90
2023-01-25T14:24:20.995Z,1.90
2023-01-25T14:26:49.655Z,1.80
2023-01-25T14:29:32.566Z,1.80
2023-01-25T14:32:02.233Z,1.80
2023-01-25T14:34:30.953Z,1.80
2023-01-25T14:37:17.460Z,1.80
2023-01-25T14:39:47.210Z,1.80
2023-01-25T14:42:16.232Z,1.80
2023-01-25T14:44:46.923Z,1.90
2023-01-25T14:47:23.987Z,1.90
2023-01-25T14:49:52.522Z,2.00
2023-01-25T14:52:25.081Z,2.10
2023-01-25T14:54:56.332Z,2.10
2023-01-25T14:57:34.452Z,2.20
2023-01-25T15:00:07.200Z,2.10
2023-01-25T15:02:42.073Z,2.10
2023-01-25T15:05:24.117Z,2.10
2023-01-25T15:07:54.345Z,2.10
2023-01-25T15:10:25.085Z,2.10
2023-01-25T15:13:11.646Z,2.10
2023-01-25T15:15:55.468Z,2.10
2023-01-25T15:18:52.019Z,2.10
2023-01-25T15:21:25.267Z,2.10
2023-01-25T15:23:55.405Z,2.10
2023-01-25T15:26:35.614Z,2.10
2023-01-25T15:29:13.907Z,2.10
2023-01-25T15:31:52.554Z,2.10
2023-01-25T15:34:25.108Z,2.10
2023-01-25T15:36:54.171Z,2.00
2023-01-25T15:39:23.509Z,2.00
2023-01-25T15:41:52.105Z,2.00
2023-01-25T15:44:23.456Z,2.00
2023-01-25T15:46:53.947Z,2.00
2023-01-25T15:49:28.126Z,2.00
2023-01-25T15:51:57.028Z,1.90
2023-01-25T15:54:26.488Z,1.90
2023-01-25T15:56:59.448Z,1.80
2023-01-25T15:59:28.290Z,1.80
2023-01-25T16:01:58.732Z,1.80
2023-01-25T16:04:27.466Z,1.70
2023-01-25T16:06:56.341Z,1.70
2023-01-25T16:09:27.011Z,1.70
2023-01-25T16:11:57.877Z,1.70
2023-01-25T16:14:29.399Z,1.60
2023-01-25T16:17:03.123Z,1.60
2023-01-25T16:19:32.503Z,1.60
2023-01-25T16:22:01.165Z,1.60
2023-01-25T16:24:29.796Z,1.60
2023-01-25T16:26:59.644Z,1.60
2023-01-25T16:29:29.068Z,1.60
2023-01-25T16:31:58.005Z,1.60
2023-01-25T16:34:28.375Z,1.60
2023-01-25T16:36:59.926Z,1.60
2023-01-25T16:39:28.896Z,1.60
2023-01-25T16:41:57.864Z,1.50
2023-01-25T16:44:30.409Z,1.50
2023-01-25T16:46:59.136Z,1.40
2023-01-25T16:49:30.748Z,1.40
2023-01-25T16:52:00.072Z,1.40
2023-01-25T16:54:29.256Z,1.50
2023-01-25T16:56:59.016Z,1.50
2023-01-25T16:59:28.926Z,1.50
2023-01-25T17:01:57.677Z,1.50
2023-01-25T17:04:26.487Z,1.60
2023-01-25T17:06:56.599Z,1.60
2023-01-25T17:09:25.771Z,1.60
2023-01-25T17:11:55.438Z,1.60
2023-01-25T17:14:24.444Z,1.60
2023-01-25T17:16:53.760Z,1.60
2023-01-25T17:19:23.618Z,1.60
2023-01-25T17:21:53.378Z,1.50
2023-01-25T17:24:24.720Z,1.50
2023-01-25T17:27:19.585Z,1.50
2023-01-25T17:29:48.379Z,1.50
2023-01-25T17:32:16.983Z,1.50
2023-01-25T17:34:45.616Z,1.50
2023-01-25T17:37:14.347Z,1.40
2023-01-25T17:39:44.645Z,1.40
2023-01-25T17:42:14.769Z,1.30
2023-01-25T17:44:43.600Z,1.30
2023-01-25T17:47:12.372Z,1.30
2023-01-25T17:49:41.115Z,1.30
2023-01-25T17:52:10.912Z,1.30
2023-01-25T17:54:40.284Z,1.30
2023-01-25T17:57:10.639Z,1.30
2023-01-25T17:59:39.369Z,1.40
2023-01-25T18:02:12.402Z,1.40
2023-01-25T18:04:41.136Z,1.40
2023-01-25T18:07:09.711Z,1.50
2023-01-25T18:09:38.656Z,1.50
2023-01-25T18:12:07.616Z,1.50
2023-01-25T18:14:37.635Z,1.60
2023-01-25T18:17:06.314Z,1.60
2023-01-25T18:19:34.980Z,1.50
2023-01-25T18:22:03.698Z,1.60
2023-01-25T18:24:34.176Z,1.50
2023-01-25T18:27:06.782Z,1.50
2023-01-25T18:29:46.812Z,1.50
2023-01-25T18:32:16.022Z,1.50
2023-01-25T18:34:44.998Z,1.40
2023-01-25T18:37:21.130Z,1.50
2023-01-25T18:39:52.300Z,1.50
2023-01-25T18:42:22.766Z,1.50
2023-01-25T18:45:19.078Z,1.50
2023-01-25T18:47:47.625Z,1.40
2023-01-25T18:50:17.052Z,1.40
2023-01-25T18:52:45.567Z,1.40
2023-01-25T18:55:14.087Z,1.40
2023-01-25T18:57:44.280Z,1.40
2023-01-25T19:00:15.041Z,1.40
2023-01-25T19:02:45.199Z,1.50
2023-01-25T19:05:14.446Z,1.50
2023-01-25T19:07:43.000Z,1.50
2023-01-25T19:10:13.095Z,1.50
2023-01-25T19:12:41.654Z,1.50
2023-01-25T19:15:11.284Z,1.50
2023-01-25T19:17:40.130Z,1.50
2023-01-25T19:20:11.956Z,1.50
2023-01-25T19:22:41.340Z,1.50
2023-01-25T19:25:11.019Z,1.50
2023-01-25T19:27:39.924Z,1.50
2023-01-25T19:30:09.769Z,1.50
2023-01-25T19:32:38.374Z,1.50
2023-01-25T19:35:10.131Z,1.40
2023-01-25T19:37:39.073Z,1.40
2023-01-25T19:40:09.263Z,1.40
2023-01-25T19:42:37.784Z,1.50
2023-01-25T19:45:07.161Z,1.50
2023-01-25T19:47:35.744Z,1.50
2023-01-25T19:50:04.514Z,1.40
2023-01-25T19:52:34.720Z,1.40
2023-01-25T19:55:04.488Z,1.40
2023-01-25T19:57:33.785Z,1.40
2023-01-25T20:00:02.301Z,1.40
2023-01-25T20:02:35.258Z,1.40
2023-01-25T20:05:03.926Z,1.40
2023-01-25T20:07:34.226Z,1.40
2023-01-25T20:10:03.013Z,1.50
2023-01-25T20:12:31.767Z,1.50
2023-01-25T20:15:00.317Z,1.50
2023-01-25T20:17:28.925Z,1.50
2023-01-25T20:19:57.627Z,1.50
2023-01-25T20:22:26.414Z,1.50
2023-01-25T20:24:56.574Z,1.50
2023-01-25T20:27:25.371Z,1.50
2023-01-25T20:29:54.515Z,1.50
2023-01-25T20:32:32.482Z,1.50
2023-01-25T20:35:03.704Z,1.50
2023-01-25T20:37:32.354Z,1.50
2023-01-25T20:40:02.497Z,1.40
2023-01-25T20:42:31.238Z,1.40
2023-01-25T20:45:00.003Z,1.40
2023-01-25T20:47:28.649Z,1.40
2023-01-25T20:49:57.248Z,1.40
2023-01-25T20:52:25.910Z,1.40
2023-01-25T20:54:54.842Z,1.40
2023-01-25T20:57:24.836Z,1.40
2023-01-25T20:59:53.513Z,1.40
2023-01-25T21:02:22.174Z,1.40
2023-01-25T21:04:50.863Z,1.40
2023-01-25T21:07:19.523Z,1.40
2023-01-25T21:09:48.250Z,1.40
2023-01-25T21:12:16.964Z,1.50
2023-01-25T21:14:47.014Z,1.40
2023-01-25T21:17:17.071Z,1.40
2023-01-25T21:19:45.652Z,1.40
2023-01-25T21:22:14.331Z,1.40
2023-01-25T21:24:42.972Z,1.40
2023-01-25T21:27:11.662Z,1.50
2023-01-25T21:29:40.268Z,1.50
2023-01-25T21:32:10.408Z,1.40
2023-01-25T21:34:39.010Z,1.40
2023-01-25T21:37:07.937Z,1.50
2023-01-25T21:39:36.604Z,1.50
2023-01-25T21:42:05.484Z,1.50
2023-01-25T21:44:51.283Z,1.40
2023-01-25T21:47:29.977Z,1.40
2023-01-25T21:50:16.754Z,1.40
2023-01-25T21:52:45.362Z,1.40
2023-01-25T21:55:13.902Z,1.30
2023-01-25T21:57:47.087Z,1.30
2023-01-25T22:00:17.409Z,1.40
2023-01-25T22:02:47.424Z,1.40
2023-01-25T22:05:16.106Z,1.40
2023-01-25T22:07:44.702Z,1.40
2023-01-25T22:10:13.475Z,1.40
2023-01-25T22:12:42.242Z,1.30
2023-01-25T22:15:11.470Z,1.30
2023-01-25T22:17:40.059Z,1.30
2023-01-25T22:20:12.838Z,1.30
2023-01-25T22:22:41.730Z,1.30
2023-01-25T22:25:11.155Z,1.30
2023-01-25T22:27:50.689Z,1.30
2023-01-25T22:30:19.512Z,1.30
2023-01-25T22:32:48.135Z,1.30
2023-01-25T22:35:18.534Z,1.30
2023-01-25T22:37:47.127Z,1.40
2023-01-25T22:40:16.029Z,1.40
2023-01-25T22:42:44.691Z,1.40
2023-01-25T22:45:13.481Z,1.40
2023-01-25T22:47:44.082Z,1.40
2023-01-25T22:50:13.323Z,1.50
2023-01-25T22:52:46.048Z,1.50
2023-01-25T22:55:14.906Z,1.40
2023-01-25T22:57:48.597Z,1.40
2023-01-25T23:00:18.134Z,1.40
2023-01-25T23:02:46.685Z,1.40
2023-01-25T23:05:15.321Z,1.40
2023-01-25T23:07:45.771Z,1.40
2023-01-25T23:10:14.559Z,1.40
2023-01-25T23:12:43.264Z,1.40
2023-01-25T23:15:19.335Z,1.40
2023-01-25T23:18:05.766Z,1.40
2023-01-25T23:20:35.670Z,1.30
2023-01-25T23:23:08.845Z,1.30
2023-01-25T23:25:40.189Z,1.30
2023-01-25T23:28:08.792Z,1.20
2023-01-25T23:30:37.489Z,1.20
2023-01-25T23:33:06.296Z,1.10
2023-01-25T23:35:35.216Z,1.10
2023-01-25T23:38:16.159Z,1.10
2023-01-25T23:40:44.865Z,1.10
2023-01-25T23:43:13.635Z,1.00
2023-01-25T23:45:44.649Z,1.10
2023-01-25T23:48:13.400Z,1.10
2023-01-25T23:50:42.075Z,1.10
2023-01-25T23:53:12.325Z,1.10
2023-01-25T23:55:41.021Z,1.10
2023-01-25T23:58:09.688Z,1.10
